Terminal Aerodrome Forecast
Issued by NWS Cleveland, OH

Home | Current Version | Previous Version | Text Only | Print | Product List | Glossary Off
Versions: 1 2 3 4 5 6 7 8 9 10 11 12 13 14 15 16 17 18 19 20 21 22 23 24 25 26 27 28 29 30 31

990
FTUS41 KCLE 291045 AAC
TAFCLE
TAF AMD
KCLE 291045Z 2911/3012 09005KT 6SM BR SCT007 OVC012
     FM291800 06012G20KT P6SM VCSH OVC015
     FM292300 06015G25KT 4SM -RA BR OVC007
     FM300500 08012KT 5SM -RA BR OVC007=

USA.gov is the U.S. government's official web portal to all federal, state and local government web resources and services.